sensor_id;sensor_type;location;lat;lon;timestamp;pressure;altitude;pressure_sealevel;temperature;humidity
22930;BME280;11630;42.660;23.292;2023-04-25T00:02:10;68930.59;;;12.65;100.00
22930;BME280;11630;42.660;23.292;2023-04-25T00:04:41;68917.23;;;12.54;100.00
22930;BME280;11630;42.660;23.292;2023-04-25T00:07:12;68925.97;;;12.64;100.00
22930;BME280;11630;42.660;23.292;2023-04-25T00:09:44;68947.21;;;12.79;100.00
22930;BME280;11630;42.660;23.292;2023-04-25T00:12:14;68957.59;;;12.88;100.00
22930;BME280;11630;42.660;23.292;2023-04-25T00:14:45;68936.59;;;12.75;100.00
22930;BME280;11630;42.660;23.292;2023-04-25T00:17:17;68907.17;;;12.46;100.00
22930;BME280;11630;42.660;23.292;2023-04-25T00:19:48;68852.95;;;11.95;100.00
22930;BME280;11630;42.660;23.292;2023-04-25T00:22:20;68858.95;;;12.01;100.00
22930;BME280;11630;42.660;23.292;2023-04-25T00:24:51;68874.75;;;12.13;100.00
22930;BME280;11630;42.660;23.292;2023-04-25T00:27:22;68891.91;;;12.25;100.00
22930;BME280;11630;42.660;23.292;2023-04-25T00:29:53;68900.34;;;12.38;100.00
22930;BME280;11630;42.660;23.292;2023-04-25T00:32:24;68922.70;;;12.59;100.00
22930;BME280;11630;42.660;23.292;2023-04-25T00:34:55;68943.95;;;12.78;100.00
22930;BME280;11630;42.660;23.292;2023-04-25T00:37:26;68951.31;;;12.86;100.00
22930;BME280;11630;42.660;23.292;2023-04-25T00:39:59;68942.58;;;12.73;100.00
22930;BME280;11630;42.660;23.292;2023-04-25T00:42:31;68904.98;;;12.41;100.00
22930;BME280;11630;42.660;23.292;2023-04-25T00:45:02;68926.49;;;12.57;100.00
22930;BME280;11630;42.660;23.292;2023-04-25T00:47:33;68936.59;;;12.68;100.00
22930;BME280;11630;42.660;23.292;2023-04-25T00:50:07;68925.69;;;12.60;100.00
22930;BME280;11630;42.660;23.292;2023-04-25T00:52:44;68951.02;;;12.87;100.00
22930;BME280;11630;42.660;23.292;2023-04-25T00:55:10;68936.59;;;12.70;100.00
22930;BME280;11630;42.660;23.292;2023-04-25T00:57:41;68897.63;;;12.38;100.00
22930;BME280;11630;42.660;23.292;2023-04-25T01:00:11;68893.28;;;12.34;100.00
22930;BME280;11630;42.660;23.292;2023-04-25T01:02:42;68861.40;;;12.04;100.00
22930;BME280;11630;42.660;23.292;2023-04-25T01:05:12;68883.18;;;12.24;100.00
22930;BME280;11630;42.660;23.292;2023-04-25T01:07:42;68876.11;;;12.15;100.00
22930;BME280;11630;42.660;23.292;2023-04-25T01:10:14;68862.22;;;12.09;100.00
22930;BME280;11630;42.660;23.292;2023-04-25T01:12:44;68856.23;;;11.98;100.00
22930;BME280;11630;42.660;23.292;2023-04-25T01:15:15;68856.23;;;11.96;100.00
22930;BME280;11630;42.660;23.292;2023-04-25T01:17:47;68870.12;;;12.07;100.00
22930;BME280;11630;42.660;23.292;2023-04-25T01:20:17;68838.80;;;11.80;100.00
22930;BME280;11630;42.660;23.292;2023-04-25T01:22:50;68827.92;;;11.75;100.00
22930;BME280;11630;42.660;23.292;2023-04-25T01:25:21;68851.59;;;11.93;100.00
22930;BME280;11630;42.660;23.292;2023-04-25T01:27:53;68852.68;;;11.99;100.00
22930;BME280;11630;42.660;23.292;2023-04-25T01:30:25;68853.50;;;11.98;100.00
22930;BME280;11630;42.660;23.292;2023-04-25T01:32:59;68801.76;;;11.51;100.00
22930;BME280;11630;42.660;23.292;2023-04-25T01:35:32;68799.58;;;11.49;100.00
22930;BME280;11630;42.660;23.292;2023-04-25T01:38:03;68793.58;;;11.39;100.00
22930;BME280;11630;42.660;23.292;2023-04-25T01:40:34;68784.60;;;11.32;100.00
22930;BME280;11630;42.660;23.292;2023-04-25T01:43:06;68786.78;;;11.36;100.00
22930;BME280;11630;42.660;23.292;2023-04-25T01:45:40;68794.67;;;11.42;100.00
22930;BME280;11630;42.660;23.292;2023-04-25T01:48:13;68818.38;;;11.67;100.00
22930;BME280;11630;42.660;23.292;2023-04-25T01:50:45;68829.55;;;11.74;100.00
22930;BME280;11630;42.660;23.292;2023-04-25T01:53:15;68848.05;;;11.91;100.00
22930;BME280;11630;42.660;23.292;2023-04-25T01:55:46;68839.33;;;11.80;100.00
22930;BME280;11630;42.660;23.292;2023-04-25T01:58:17;68823.81;;;11.67;100.00
22930;BME280;11630;42.660;23.292;2023-04-25T02:00:48;68854.33;;;11.98;100.00
22930;BME280;11630;42.660;23.292;2023-04-25T02:03:19;68852.14;;;12.01;100.00
22930;BME280;11630;42.660;23.292;2023-04-25T02:05:50;68864.67;;;12.05;100.00
22930;BME280;11630;42.660;23.292;2023-04-25T02:08:20;68833.36;;;11.80;100.00
22930;BME280;11630;42.660;23.292;2023-04-25T02:10:51;68842.88;;;11.82;100.00
22930;BME280;11630;42.660;23.292;2023-04-25T02:13:24;68862.76;;;12.02;100.00
22930;BME280;11630;42.660;23.292;2023-04-25T02:15:54;68875.58;;;12.20;100.00
22930;BME280;11630;42.660;23.292;2023-04-25T02:18:26;68870.92;;;12.07;100.00
22930;BME280;11630;42.660;23.292;2023-04-25T02:20:57;68886.72;;;12.28;100.00
22930;BME280;11630;42.660;23.292;2023-04-25T02:23:30;68894.91;;;12.31;100.00
22930;BME280;11630;42.660;23.292;2023-04-25T02:26:01;68910.14;;;12.42;100.00
22930;BME280;11630;42.660;23.292;2023-04-25T02:28:32;68893.28;;;12.34;100.00
22930;BME280;11630;42.660;23.292;2023-04-25T02:31:03;68903.61;;;12.39;100.00
22930;BME280;11630;42.660;23.292;2023-04-25T02:33:34;68863.02;;;12.06;100.00
22930;BME280;11630;42.660;23.292;2023-04-25T02:36:05;68843.44;;;11.85;100.00
22930;BME280;11630;42.660;23.292;2023-04-25T02:38:35;68847.78;;;11.92;100.00
22930;BME280;11630;42.660;23.292;2023-04-25T02:41:07;68845.06;;;11.87;100.00
22930;BME280;11630;42.660;23.292;2023-04-25T02:43:37;68849.70;;;11.90;100.00
22930;BME280;11630;42.660;23.292;2023-04-25T02:46:10;68839.34;;;11.88;100.00
22930;BME280;11630;42.660;23.292;2023-04-25T02:48:42;68849.41;;;11.91;100.00
22930;BME280;11630;42.660;23.292;2023-04-25T02:51:13;68853.78;;;11.90;100.00
22930;BME280;11630;42.660;23.292;2023-04-25T02:53:44;68843.14;;;11.84;100.00
22930;BME280;11630;42.660;23.292;2023-04-25T02:56:17;68815.66;;;11.60;100.00
22930;BME280;11630;42.660;23.292;2023-04-25T02:58:48;68806.10;;;11.48;100.00
22930;BME280;11630;42.660;23.292;2023-04-25T03:01:18;68797.95;;;11.45;100.00
22930;BME280;11630;42.660;23.292;2023-04-25T03:03:47;68762.57;;;11.15;100.00
22930;BME280;11630;42.660;23.292;2023-04-25T03:06:18;68780.52;;;11.29;100.00
22930;BME280;11630;42.660;23.292;2023-04-25T03:08:51;68815.64;;;11.55;100.00
22930;BME280;11630;42.660;23.292;2023-04-25T03:11:25;68812.39;;;11.54;100.00
22930;BME280;11630;42.660;23.292;2023-04-25T03:13:55;68809.41;;;11.53;100.00
22930;BME280;11630;42.660;23.292;2023-04-25T03:16:26;68762.84;;;11.12;100.00
22930;BME280;11630;42.660;23.292;2023-04-25T03:18:57;68736.17;;;10.90;100.00
22930;BME280;11630;42.660;23.292;2023-04-25T03:21:28;68732.08;;;10.85;100.00
22930;BME280;11630;42.660;23.292;2023-04-25T03:23:59;68752.22;;;11.03;100.00
22930;BME280;11630;42.660;23.292;2023-04-25T03:26:30;68732.91;;;10.89;100.00
22930;BME280;11630;42.660;23.292;2023-04-25T03:29:00;68767.18;;;11.18;100.00
22930;BME280;11630;42.660;23.292;2023-04-25T03:31:32;68757.67;;;11.08;100.00
22930;BME280;11630;42.660;23.292;2023-04-25T03:34:05;68723.39;;;10.79;100.00
22930;BME280;11630;42.660;23.292;2023-04-25T03:36:36;68738.34;;;10.87;100.00
22930;BME280;11630;42.660;23.292;2023-04-25T03:39:07;68741.61;;;11.00;100.00
22930;BME280;11630;42.660;23.292;2023-04-25T03:41:38;68733.17;;;10.88;100.00
22930;BME280;11630;42.660;23.292;2023-04-25T03:44:09;68748.67;;;10.96;100.00
22930;BME280;11630;42.660;23.292;2023-04-25T03:46:40;68723.38;;;10.77;100.00
22930;BME280;11630;42.660;23.292;2023-04-25T03:49:11;68753.03;;;11.00;100.00
22930;BME280;11630;42.660;23.292;2023-04-25T03:51:42;68746.24;;;11.00;100.00
22930;BME280;11630;42.660;23.292;2023-04-25T03:54:13;68764.20;;;11.09;100.00
22930;BME280;11630;42.660;23.292;2023-04-25T03:56:43;68762.02;;;11.15;100.00
22930;BME280;11630;42.660;23.292;2023-04-25T03:59:13;68766.09;;;11.17;100.00
22930;BME280;11630;42.660;23.292;2023-04-25T04:01:44;68764.73;;;11.12;100.00
22930;BME280;11630;42.660;23.292;2023-04-25T04:04:18;68769.90;;;11.16;100.00
22930;BME280;11630;42.660;23.292;2023-04-25T04:06:50;68784.88;;;11.33;100.00
22930;BME280;11630;42.660;23.292;2023-04-25T04:09:21;68803.39;;;11.48;100.00
22930;BME280;11630;42.660;23.292;2023-04-25T04:11:51;68793.84;;;11.40;100.00
22930;BME280;11630;42.660;23.292;2023-04-25T04:14:25;68805.03;;;11.54;100.00
22930;BME280;11630;42.660;23.292;2023-04-25T04:16:56;68839.35;;;11.85;100.00
22930;BME280;11630;42.660;23.292;2023-04-25T04:19:27;68801.47;;;11.42;100.00
22930;BME280;11630;42.660;23.292;2023-04-25T04:21:56;68809.94;;;11.53;100.00
22930;BME280;11630;42.660;23.292;2023-04-25T04:24:27;68818.91;;;11.63;100.00
22930;BME280;11630;42.660;23.292;2023-04-25T04:26:58;68807.77;;;11.56;100.00
22930;BME280;11630;42.660;23.292;2023-04-25T04:29:29;68789.50;;;11.34;100.00
22930;BME280;11630;42.660;23.292;2023-04-25T04:31:59;68779.70;;;11.27;100.00
22930;BME280;11630;42.660;23.292;2023-04-25T04:34:30;68790.31;;;11.36;100.00
22930;BME280;11630;42.660;23.292;2023-04-25T04:37:01;68807.75;;;11.54;100.00
22930;BME280;11630;42.660;23.292;2023-04-25T04:39:33;68808.04;;;11.55;100.00
22930;BME280;11630;42.660;23.292;2023-04-25T04:42:05;68826.83;;;11.71;100.00
22930;BME280;11630;42.660;23.292;2023-04-25T04:44:39;68807.75;;;11.51;100.00
22930;BME280;11630;42.660;23.292;2023-04-25T04:47:10;68809.41;;;11.53;100.00
22930;BME280;11630;42.660;23.292;2023-04-25T04:49:40;68785.42;;;11.36;100.00
22930;BME280;11630;42.660;23.292;2023-04-25T04:52:11;68821.10;;;11.62;100.00
22930;BME280;11630;42.660;23.292;2023-04-25T04:54:42;68805.59;;;11.52;100.00
22930;BME280;11630;42.660;23.292;2023-04-25T04:57:13;68850.77;;;11.91;100.00
22930;BME280;11630;42.660;23.292;2023-04-25T04:59:44;68868.76;;;12.05;100.00
22930;BME280;11630;42.660;23.292;2023-04-25T05:02:15;68838.80;;;11.80;100.00
22930;BME280;11630;42.660;23.292;2023-04-25T05:04:45;68833.89;;;11.75;100.00
22930;BME280;11630;42.660;23.292;2023-04-25T05:07:16;68845.06;;;11.84;100.00
22930;BME280;11630;42.660;23.292;2023-04-25T05:09:47;68842.08;;;11.83;100.00
22930;BME280;11630;42.660;23.292;2023-04-25T05:12:18;68823.55;;;11.68;100.00
22930;BME280;11630;42.660;23.292;2023-04-25T05:14:49;68819.20;;;11.67;100.00
22930;BME280;11630;42.660;23.292;2023-04-25T05:17:20;68841.80;;;11.89;100.00
22930;BME280;11630;42.660;23.292;2023-04-25T05:19:51;68869.30;;;12.05;100.00
22930;BME280;11630;42.660;23.292;2023-04-25T05:22:23;68881.02;;;12.20;100.00
22930;BME280;11630;42.660;23.292;2023-04-25T05:24:54;68868.48;;;12.13;100.00
22930;BME280;11630;42.660;23.292;2023-04-25T05:27:25;68883.47;;;12.23;100.00
22930;BME280;11630;42.660;23.292;2023-04-25T05:29:56;68860.59;;;12.05;100.00
22930;BME280;11630;42.660;23.292;2023-04-25T05:32:27;68883.47;;;12.26;100.00
22930;BME280;11630;42.660;23.292;2023-04-25T05:34:59;68892.72;;;12.34;100.00
22930;BME280;11630;42.660;23.292;2023-04-25T05:37:30;68905.79;;;12.43;100.00
22930;BME280;11630;42.660;23.292;2023-04-25T05:40:01;68919.97;;;12.59;100.00
22930;BME280;11630;42.660;23.292;2023-04-25T05:42:31;68912.61;;;12.51;100.00
22930;BME280;11630;42.660;23.292;2023-04-25T05:45:01;68906.63;;;12.40;100.00
22930;BME280;11630;42.660;23.292;2023-04-25T05:47:30;68909.07;;;12.44;100.00
22930;BME280;11630;42.660;23.292;2023-04-25T05:50:01;68919.42;;;12.53;100.00
22930;BME280;11630;42.660;23.292;2023-04-25T05:52:32;68900.34;;;12.38;100.00
22930;BME280;11630;42.660;23.292;2023-04-25T05:55:03;68909.34;;;12.45;100.00
22930;BME280;11630;42.660;23.292;2023-04-25T05:57:35;68880.19;;;12.20;100.00
22930;BME280;11630;42.660;23.292;2023-04-25T06:00:08;68891.63;;;12.28;100.00
22930;BME280;11630;42.660;23.292;2023-04-25T06:02:38;68881.02;;;12.22;100.00
22930;BME280;11630;42.660;23.292;2023-04-25T06:05:08;68882.38;;;12.25;100.00
22930;BME280;11630;42.660;23.292;2023-04-25T06:07:39;68878.83;;;12.20;100.00
22930;BME280;11630;42.660;23.292;2023-04-25T06:10:10;68897.63;;;12.33;100.00
22930;BME280;11630;42.660;23.292;2023-04-25T06:12:39;68886.99;;;12.25;100.00
22930;BME280;11630;42.660;23.292;2023-04-25T06:15:11;68881.55;;;12.20;100.00
22930;BME280;11630;42.660;23.292;2023-04-25T06:17:42;68862.22;;;12.06;100.00
22930;BME280;11630;42.660;23.292;2023-04-25T06:20:14;68867.11;;;12.06;100.00
22930;BME280;11630;42.660;23.292;2023-04-25T06:22:45;68888.36;;;12.23;100.00
22930;BME280;11630;42.660;23.292;2023-04-25T06:25:16;68885.91;;;12.22;100.00
22930;BME280;11630;42.660;23.292;2023-04-25T06:27:48;68913.42;;;12.50;100.00
22930;BME280;11630;42.660;23.292;2023-04-25T06:30:20;68899.53;;;12.36;100.00
22930;BME280;11630;42.660;23.292;2023-04-25T06:32:51;68933.31;;;12.70;100.00
22930;BME280;11630;42.660;23.292;2023-04-25T06:35:21;68959.23;;;12.92;100.00
22930;BME280;11630;42.660;23.292;2023-04-25T06:37:52;69000.12;;;13.27;100.00
22930;BME280;11630;42.660;23.292;2023-04-25T06:40:23;68982.13;;;13.08;100.00
22930;BME280;11630;42.660;23.292;2023-04-25T06:42:53;68985.67;;;13.20;100.00
22930;BME280;11630;42.660;23.292;2023-04-25T06:45:24;68971.22;;;12.98;100.00
22930;BME280;11630;42.660;23.292;2023-04-25T06:47:55;68985.39;;;13.11;100.00
22930;BME280;11630;42.660;23.292;2023-04-25T06:50:24;68944.22;;;12.80;100.00
22930;BME280;11630;42.660;23.292;2023-04-25T06:52:56;68972.86;;;13.07;100.00
22930;BME280;11630;42.660;23.292;2023-04-25T06:55:28;68998.22;;;13.26;100.00
22930;BME280;11630;42.660;23.292;2023-04-25T06:58:00;68982.66;;;13.11;100.00
22930;BME280;11630;42.660;23.292;2023-04-25T07:00:30;69006.66;;;13.33;100.00
22930;BME280;11630;42.660;23.292;2023-04-25T07:03:00;69008.58;;;13.36;100.00
22930;BME280;11630;42.660;23.292;2023-04-25T07:05:31;68988.93;;;13.20;100.00
22930;BME280;11630;42.660;23.292;2023-04-25T07:08:02;69011.28;;;13.31;100.00
22930;BME280;11630;42.660;23.292;2023-04-25T07:10:32;69028.74;;;13.57;100.00
22930;BME280;11630;42.660;23.292;2023-04-25T07:13:02;69030.38;;;13.56;100.00
22930;BME280;11630;42.660;23.292;2023-04-25T07:15:33;69024.66;;;13.54;100.00
22930;BME280;11630;42.660;23.292;2023-04-25T07:18:04;69055.73;;;13.82;100.00
22930;BME280;11630;42.660;23.292;2023-04-25T07:20:34;69059.84;;;13.78;100.00
22930;BME280;11630;42.660;23.292;2023-04-25T07:23:05;69042.38;;;13.62;100.00
22930;BME280;11630;42.660;23.292;2023-04-25T07:25:35;69098.86;;;14.19;100.00
22930;BME280;11630;42.660;23.292;2023-04-25T07:28:05;69088.76;;;14.04;100.00
22930;BME280;11630;42.660;23.292;2023-04-25T07:30:36;69074.84;;;14.00;100.00
22930;BME280;11630;42.660;23.292;2023-04-25T07:33:07;69076.76;;;13.95;100.00
22930;BME280;11630;42.660;23.292;2023-04-25T07:35:38;69079.20;;;14.01;100.00
22930;BME280;11630;42.660;23.292;2023-04-25T07:38:12;69056.02;;;13.84;100.00
22930;BME280;11630;42.660;23.292;2023-04-25T07:40:42;69090.42;;;14.10;100.00
22930;BME280;11630;42.660;23.292;2023-04-25T07:43:13;69113.61;;;14.30;100.00
22930;BME280;11630;42.660;23.292;2023-04-25T07:45:44;69143.89;;;14.59;100.00
22930;BME280;11630;42.660;23.292;2023-04-25T07:48:18;69157.81;;;14.78;100.00
22930;BME280;11630;42.660;23.292;2023-04-25T07:50:49;69170.11;;;14.80;100.00
22930;BME280;11630;42.660;23.292;2023-04-25T07:53:19;69152.36;;;14.68;100.00
22930;BME280;11630;42.660;23.292;2023-04-25T07:55:51;69143.09;;;14.52;100.00
22930;BME280;11630;42.660;23.292;2023-04-25T07:58:21;69176.92;;;14.90;100.00
22930;BME280;11630;42.660;23.292;2023-04-25T08:00:52;69171.19;;;14.89;100.00
22930;BME280;11630;42.660;23.292;2023-04-25T09:36:06;69316.55;;;16.14;68.33
22930;BME280;11630;42.660;23.292;2023-04-25T09:38:46;69323.91;;;16.24;69.14
22930;BME280;11630;42.660;23.292;2023-04-25T09:41:22;69330.75;;;16.26;83.52
22930;BME280;11630;42.660;23.292;2023-04-25T09:43:50;69342.80;;;16.40;92.12
22930;BME280;11630;42.660;23.292;2023-04-25T09:46:22;69394.98;;;16.93;70.87
22930;BME280;11630;42.660;23.292;2023-04-25T09:48:53;69494.09;;;17.73;63.00
22930;BME280;11630;42.660;23.292;2023-04-25T09:51:25;69549.95;;;18.24;88.20
22930;BME280;11630;42.660;23.292;2023-04-25T09:53:56;69566.64;;;18.41;95.72
22930;BME280;11630;42.660;23.292;2023-04-25T09:56:29;69574.09;;;18.36;91.60
22930;BME280;11630;42.660;23.292;2023-04-25T09:59:00;69532.96;;;18.09;93.11
22930;BME280;11630;42.660;23.292;2023-04-25T10:01:32;69485.31;;;17.68;93.46
22930;BME280;11630;42.660;23.292;2023-04-25T10:04:04;69435.50;;;17.28;96.14
22930;BME280;11630;42.660;23.292;2023-04-25T10:06:37;69434.39;;;17.24;91.08
22930;BME280;11630;42.660;23.292;2023-04-25T10:09:08;69414.18;;;17.01;74.08
22930;BME280;11630;42.660;23.292;2023-04-25T10:11:39;69398.35;;;16.77;90.42
22930;BME280;11630;42.660;23.292;2023-04-25T10:14:11;69355.94;;;16.47;92.11
22930;BME280;11630;42.660;23.292;2023-04-25T10:16:42;69294.39;;;16.02;78.75
22930;BME280;11630;42.660;23.292;2023-04-25T10:19:13;69218.98;;;15.34;87.20
22930;BME280;11630;42.660;23.292;2023-04-25T10:22:04;69220.64;;;15.28;89.68
22930;BME280;11630;42.660;23.292;2023-04-25T10:24:35;69198.22;;;15.15;96.91
22930;BME280;11630;42.660;23.292;2023-04-25T10:27:07;69306.98;;;16.04;96.47
22930;BME280;11630;42.660;23.292;2023-04-25T10:29:39;69425.43;;;17.00;91.82
22930;BME280;11630;42.660;23.292;2023-04-25T10:32:10;69481.76;;;17.64;87.55
22930;BME280;11630;42.660;23.292;2023-04-25T10:34:45;69540.88;;;18.20;82.98
22930;BME280;11630;42.660;23.292;2023-04-25T10:37:17;69686.41;;;19.43;83.35
22930;BME280;11630;42.660;23.292;2023-04-25T10:39:48;69703.39;;;19.61;68.43
22930;BME280;11630;42.660;23.292;2023-04-25T10:42:18;69735.45;;;19.96;63.37
22930;BME280;11630;42.660;23.292;2023-04-25T10:45:04;69615.11;;;18.88;54.83
22930;BME280;11630;42.660;23.292;2023-04-25T10:47:36;69638.42;;;19.03;56.42
22930;BME280;11630;42.660;23.292;2023-04-25T10:50:10;69684.45;;;19.47;59.53
22930;BME280;11630;42.660;23.292;2023-04-25T10:52:41;69566.66;;;18.38;74.01
22930;BME280;11630;42.660;23.292;2023-04-25T10:55:12;69588.30;;;18.56;72.56
22930;BME280;11630;42.660;23.292;2023-04-25T10:57:44;69518.16;;;17.98;61.11
22930;BME280;11630;42.660;23.292;2023-04-25T11:00:21;69513.52;;;17.90;60.83
22930;BME280;11630;42.660;23.292;2023-04-25T11:02:59;69564.20;;;18.35;57.76
22930;BME280;11630;42.660;23.292;2023-04-25T11:05:33;69569.16;;;18.34;57.56
22930;BME280;11630;42.660;23.292;2023-04-25T11:08:08;69618.67;;;18.88;57.40
22930;BME280;11630;42.660;23.292;2023-04-25T11:10:36;69621.44;;;18.85;54.70
22930;BME280;11630;42.660;23.292;2023-04-25T11:13:06;69593.78;;;18.59;56.43
22930;BME280;11630;42.660;23.292;2023-04-25T11:15:37;69538.73;;;18.08;59.06
22930;BME280;11630;42.660;23.292;2023-04-25T11:18:08;69510.80;;;17.85;59.07
22930;BME280;11630;42.660;23.292;2023-04-25T11:20:38;69576.22;;;18.51;59.89
22930;BME280;11630;42.660;23.292;2023-04-25T11:23:10;69547.78;;;18.15;63.62
22930;BME280;11630;42.660;23.292;2023-04-25T11:25:40;69578.95;;;18.55;62.19
22930;BME280;11630;42.660;23.292;2023-04-25T11:28:12;69572.41;;;18.45;62.80
22930;BME280;11630;42.660;23.292;2023-04-25T11:30:47;69548.03;;;18.24;64.31
22930;BME280;11630;42.660;23.292;2023-04-25T11:33:14;69493.00;;;17.70;66.66
22930;BME280;11630;42.660;23.292;2023-04-25T11:35:45;69418.53;;;17.12;69.25
22930;BME280;11630;42.660;23.292;2023-04-25T11:38:16;69385.19;;;16.75;70.11
22930;BME280;11630;42.660;23.292;2023-04-25T11:40:53;69383.52;;;16.81;74.20
22930;BME280;11630;42.660;23.292;2023-04-25T11:43:23;69310.52;;;16.11;78.43
22930;BME280;11630;42.660;23.292;2023-04-25T11:45:57;69292.77;;;15.93;82.32
22930;BME280;11630;42.660;23.292;2023-04-25T11:48:28;69283.22;;;15.78;86.88
22930;BME280;11630;42.660;23.292;2023-04-25T11:51:00;69216.81;;;15.22;88.50
22930;BME280;11630;42.660;23.292;2023-04-25T11:53:31;69202.59;;;15.09;95.45
22930;BME280;11630;42.660;23.292;2023-04-25T11:56:01;69165.72;;;14.86;95.22
22930;BME280;11630;42.660;23.292;2023-04-25T11:58:32;69165.45;;;14.80;96.91
22930;BME280;11630;42.660;23.292;2023-04-25T12:01:03;69205.33;;;15.14;99.83
22930;BME280;11630;42.660;23.292;2023-04-25T12:03:32;69246.30;;;15.53;100.00
22930;BME280;11630;42.660;23.292;2023-04-25T12:06:04;69284.83;;;15.90;94.33
22930;BME280;11630;42.660;23.292;2023-04-25T12:08:34;69322.82;;;16.23;94.33
22930;BME280;11630;42.660;23.292;2023-04-25T12:11:05;69363.31;;;16.57;100.00
22930;BME280;11630;42.660;23.292;2023-04-25T12:13:37;69385.17;;;16.77;100.00
22930;BME280;11630;42.660;23.292;2023-04-25T12:16:07;69404.31;;;16.94;100.00
22930;BME280;11630;42.660;23.292;2023-04-25T12:18:38;69464.81;;;17.46;100.00
22930;BME280;11630;42.660;23.292;2023-04-25T12:21:09;69421.27;;;17.12;100.00
22930;BME280;11630;42.660;23.292;2023-04-25T12:23:39;69427.06;;;17.06;95.24
22930;BME280;11630;42.660;23.292;2023-04-25T12:26:09;69398.30;;;16.87;96.36
22930;BME280;11630;42.660;23.292;2023-04-25T12:28:44;69426.46;;;17.18;95.94
22930;BME280;11630;42.660;23.292;2023-04-25T12:31:11;69435.24;;;17.21;98.44
22930;BME280;11630;42.660;23.292;2023-04-25T12:33:42;69409.28;;;16.92;94.08
22930;BME280;11630;42.660;23.292;2023-04-25T12:36:13;69378.06;;;16.71;96.65
22930;BME280;11630;42.660;23.292;2023-04-25T12:38:44;69262.17;;;15.65;98.79
22930;BME280;11630;42.660;23.292;2023-04-25T12:41:14;69253.95;;;15.60;100.00
22930;BME280;11630;42.660;23.292;2023-04-25T12:43:45;69290.03;;;15.91;100.00
22930;BME280;11630;42.660;23.292;2023-04-25T12:46:16;69249.85;;;15.58;100.00
22930;BME280;11630;42.660;23.292;2023-04-25T12:48:49;69226.10;;;15.33;100.00
22930;BME280;11630;42.660;23.292;2023-04-25T12:51:20;69228.58;;;15.31;100.00
22930;BME280;11630;42.660;23.292;2023-04-25T12:53:51;69159.45;;;14.77;100.00
22930;BME280;11630;42.660;23.292;2023-04-25T12:56:21;69081.38;;;14.08;100.00
22930;BME280;11630;42.660;23.292;2023-04-25T12:58:52;69117.97;;;14.29;100.00
22930;BME280;11630;42.660;23.292;2023-04-25T13:01:23;69121.52;;;14.44;100.00
22930;BME280;11630;42.660;23.292;2023-04-25T13:03:54;69146.61;;;14.64;100.00
22930;BME280;11630;42.660;23.292;2023-04-25T13:06:26;69121.23;;;14.40;100.00
22930;BME280;11630;42.660;23.292;2023-04-25T13:08:56;69095.88;;;14.13;100.00
22930;BME280;11630;42.660;23.292;2023-04-25T13:11:27;69061.73;;;13.88;100.00
22930;BME280;11630;42.660;23.292;2023-04-25T13:13:57;69002.85;;;13.34;100.00
22930;BME280;11630;42.660;23.292;2023-04-25T13:16:28;68976.13;;;13.07;100.00
22930;BME280;11630;42.660;23.292;2023-04-25T13:18:59;68961.40;;;12.92;100.00
22930;BME280;11630;42.660;23.292;2023-04-25T13:21:31;68931.42;;;12.67;100.00
22930;BME280;11630;42.660;23.292;2023-04-25T13:24:01;68927.59;;;12.58;100.00
22930;BME280;11630;42.660;23.292;2023-04-25T13:26:32;68892.45;;;12.30;100.00
22930;BME280;11630;42.660;23.292;2023-04-25T13:29:03;68883.73;;;12.25;100.00
22930;BME280;11630;42.660;23.292;2023-04-25T13:31:34;68873.39;;;12.18;100.00
22930;BME280;11630;42.660;23.292;2023-04-25T13:34:03;68876.11;;;12.18;100.00
22930;BME280;11630;42.660;23.292;2023-04-25T13:36:35;68870.38;;;12.11;100.00
22930;BME280;11630;42.660;23.292;2023-04-25T13:39:05;68869.58;;;12.12;100.00
22930;BME280;11630;42.660;23.292;2023-04-25T13:41:36;68846.42;;;11.87;100.00
22930;BME280;11630;42.660;23.292;2023-04-25T13:44:07;68835.25;;;11.75;100.00
22930;BME280;11630;42.660;23.292;2023-04-25T13:46:39;68811.58;;;11.60;100.00
22930;BME280;11630;42.660;23.292;2023-04-25T13:49:11;68808.84;;;11.57;100.00
22930;BME280;11630;42.660;23.292;2023-04-25T13:51:42;68815.39;;;11.61;100.00
22930;BME280;11630;42.660;23.292;2023-04-25T13:54:14;68809.94;;;11.58;100.00
22930;BME280;11630;42.660;23.292;2023-04-25T13:56:45;68831.46;;;11.79;100.00
22930;BME280;11630;42.660;23.292;2023-04-25T13:59:15;68878.00;;;12.21;100.00
22930;BME280;11630;42.660;23.292;2023-04-25T14:01:45;68945.58;;;12.82;100.00
22930;BME280;11630;42.660;23.292;2023-04-25T14:04:16;69018.94;;;13.53;100.00
22930;BME280;11630;42.660;23.292;2023-04-25T14:06:47;69034.75;;;13.60;100.00
22930;BME280;11630;42.660;23.292;2023-04-25T14:09:19;69054.11;;;13.76;100.00
22930;BME280;11630;42.660;23.292;2023-04-25T14:11:50;69096.69;;;14.17;100.00
22930;BME280;11630;42.660;23.292;2023-04-25T14:14:22;69094.50;;;14.18;100.00
22930;BME280;11630;42.660;23.292;2023-04-25T14:16:52;69116.89;;;14.26;100.00
22930;BME280;11630;42.660;23.292;2023-04-25T14:19:23;69122.34;;;14.38;100.00
22930;BME280;11630;42.660;23.292;2023-04-25T14:21:53;69102.41;;;14.21;100.00
22930;BME280;11630;42.660;23.292;2023-04-25T14:24:23;69096.41;;;14.13;100.00
22930;BME280;11630;42.660;23.292;2023-04-25T14:26:54;69087.94;;;14.09;100.00
22930;BME280;11630;42.660;23.292;2023-04-25T14:29:25;69104.33;;;14.24;100.00
22930;BME280;11630;42.660;23.292;2023-04-25T14:31:56;69131.61;;;14.54;100.00
22930;BME280;11630;42.660;23.292;2023-04-25T14:34:27;69159.18;;;14.73;100.00
22930;BME280;11630;42.660;23.292;2023-04-25T14:36:58;69167.39;;;14.78;100.00